sensor_id;sensor_type;location;lat;lon;timestamp;P1;durP1;ratioP1;P2;durP2;ratioP2
29570;SDS011;16814;52.118;11.436;2023-05-07T00:00:08;19.33;;;11.67;;
29570;SDS011;16814;52.118;11.436;2023-05-07T00:02:37;23.20;;;12.43;;
29570;SDS011;16814;52.118;11.436;2023-05-07T00:05:03;21.75;;;12.48;;
29570;SDS011;16814;52.118;11.436;2023-05-07T00:07:32;20.98;;;11.82;;
29570;SDS011;16814;52.118;11.436;2023-05-07T00:10:03;20.35;;;11.73;;
29570;SDS011;16814;52.118;11.436;2023-05-07T00:12:32;20.60;;;11.98;;
29570;SDS011;16814;52.118;11.436;2023-05-07T00:15:01;21.20;;;11.60;;
29570;SDS011;16814;52.118;11.436;2023-05-07T00:17:28;18.95;;;11.23;;
29570;SDS011;16814;52.118;11.436;2023-05-07T00:19:57;19.40;;;11.13;;
29570;SDS011;16814;52.118;11.436;2023-05-07T00:22:27;21.08;;;11.32;;
29570;SDS011;16814;52.118;11.436;2023-05-07T00:24:56;19.30;;;11.50;;
29570;SDS011;16814;52.118;11.436;2023-05-07T00:27:24;20.10;;;12.73;;
29570;SDS011;16814;52.118;11.436;2023-05-07T00:29:51;20.42;;;12.85;;
29570;SDS011;16814;52.118;11.436;2023-05-07T00:32:19;23.77;;;13.20;;
29570;SDS011;16814;52.118;11.436;2023-05-07T00:34:46;22.58;;;13.75;;
29570;SDS011;16814;52.118;11.436;2023-05-07T00:37:14;22.10;;;13.57;;
29570;SDS011;16814;52.118;11.436;2023-05-07T00:39:41;21.90;;;14.68;;
29570;SDS011;16814;52.118;11.436;2023-05-07T00:42:08;22.70;;;13.68;;
29570;SDS011;16814;52.118;11.436;2023-05-07T00:44:33;22.03;;;13.50;;
29570;SDS011;16814;52.118;11.436;2023-05-07T00:47:01;17.73;;;12.40;;
29570;SDS011;16814;52.118;11.436;2023-05-07T00:49:35;17.33;;;12.30;;
29570;SDS011;16814;52.118;11.436;2023-05-07T00:52:09;18.70;;;12.35;;
29570;SDS011;16814;52.118;11.436;2023-05-07T00:54:41;18.05;;;12.02;;
29570;SDS011;16814;52.118;11.436;2023-05-07T00:57:07;17.75;;;12.27;;
29570;SDS011;16814;52.118;11.436;2023-05-07T00:59:37;19.50;;;12.27;;
29570;SDS011;16814;52.118;11.436;2023-05-07T01:02:15;19.65;;;12.57;;
29570;SDS011;16814;52.118;11.436;2023-05-07T01:04:43;16.98;;;11.88;;
29570;SDS011;16814;52.118;11.436;2023-05-07T01:07:09;17.65;;;12.43;;
29570;SDS011;16814;52.118;11.436;2023-05-07T01:09:36;19.85;;;13.38;;
29570;SDS011;16814;52.118;11.436;2023-05-07T01:12:04;19.83;;;13.38;;
29570;SDS011;16814;52.118;11.436;2023-05-07T01:14:33;20.65;;;12.63;;
29570;SDS011;16814;52.118;11.436;2023-05-07T01:17:04;18.00;;;12.23;;
29570;SDS011;16814;52.118;11.436;2023-05-07T01:19:34;17.67;;;12.40;;
29570;SDS011;16814;52.118;11.436;2023-05-07T01:22:05;16.55;;;11.38;;
29570;SDS011;16814;52.118;11.436;2023-05-07T01:24:37;18.38;;;11.48;;
29570;SDS011;16814;52.118;11.436;2023-05-07T01:27:03;16.50;;;11.80;;
29570;SDS011;16814;52.118;11.436;2023-05-07T01:29:30;15.57;;;11.50;;
29570;SDS011;16814;52.118;11.436;2023-05-07T01:31:58;16.73;;;11.50;;
29570;SDS011;16814;52.118;11.436;2023-05-07T01:34:25;16.05;;;10.85;;
29570;SDS011;16814;52.118;11.436;2023-05-07T01:36:58;15.85;;;11.82;;
29570;SDS011;16814;52.118;11.436;2023-05-07T01:39:25;14.05;;;11.18;;
29570;SDS011;16814;52.118;11.436;2023-05-07T01:41:53;20.50;;;11.13;;
29570;SDS011;16814;52.118;11.436;2023-05-07T01:44:29;14.07;;;10.85;;
29570;SDS011;16814;52.118;11.436;2023-05-07T01:46:57;13.73;;;10.07;;
29570;SDS011;16814;52.118;11.436;2023-05-07T01:49:25;11.47;;;9.00;;
29570;SDS011;16814;52.118;11.436;2023-05-07T01:51:52;16.33;;;9.75;;
29570;SDS011;16814;52.118;11.436;2023-05-07T01:54:18;11.97;;;9.30;;
29570;SDS011;16814;52.118;11.436;2023-05-07T01:56:47;12.82;;;10.20;;
29570;SDS011;16814;52.118;11.436;2023-05-07T01:59:14;15.88;;;10.35;;
29570;SDS011;16814;52.118;11.436;2023-05-07T02:01:40;13.32;;;9.77;;
29570;SDS011;16814;52.118;11.436;2023-05-07T02:04:07;14.02;;;10.40;;
29570;SDS011;16814;52.118;11.436;2023-05-07T02:06:34;12.57;;;9.83;;
29570;SDS011;16814;52.118;11.436;2023-05-07T02:09:03;13.23;;;10.32;;
29570;SDS011;16814;52.118;11.436;2023-05-07T02:11:41;13.88;;;10.30;;
29570;SDS011;16814;52.118;11.436;2023-05-07T02:14:07;13.63;;;10.38;;
29570;SDS011;16814;52.118;11.436;2023-05-07T02:16:34;13.85;;;9.98;;
29570;SDS011;16814;52.118;11.436;2023-05-07T02:19:01;15.75;;;10.85;;
29570;SDS011;16814;52.118;11.436;2023-05-07T02:21:28;14.47;;;10.30;;
29570;SDS011;16814;52.118;11.436;2023-05-07T02:23:53;14.23;;;9.70;;
29570;SDS011;16814;52.118;11.436;2023-05-07T02:26:19;14.70;;;10.20;;
29570;SDS011;16814;52.118;11.436;2023-05-07T02:28:44;14.60;;;10.00;;
29570;SDS011;16814;52.118;11.436;2023-05-07T02:31:13;13.73;;;9.70;;
29570;SDS011;16814;52.118;11.436;2023-05-07T02:33:40;13.38;;;9.85;;
29570;SDS011;16814;52.118;11.436;2023-05-07T02:36:10;14.15;;;9.60;;
29570;SDS011;16814;52.118;11.436;2023-05-07T02:38:37;14.15;;;9.77;;
29570;SDS011;16814;52.118;11.436;2023-05-07T02:41:04;14.75;;;10.30;;
29570;SDS011;16814;52.118;11.436;2023-05-07T02:43:31;13.98;;;10.15;;
29570;SDS011;16814;52.118;11.436;2023-05-07T02:46:01;15.55;;;10.60;;
29570;SDS011;16814;52.118;11.436;2023-05-07T02:48:30;15.07;;;10.15;;
29570;SDS011;16814;52.118;11.436;2023-05-07T02:50:59;13.45;;;9.68;;
29570;SDS011;16814;52.118;11.436;2023-05-07T02:53:28;13.85;;;9.50;;
29570;SDS011;16814;52.118;11.436;2023-05-07T02:55:58;13.02;;;9.25;;
29570;SDS011;16814;52.118;11.436;2023-05-07T02:58:28;11.43;;;8.77;;
29570;SDS011;16814;52.118;11.436;2023-05-07T03:00:57;12.05;;;9.10;;
29570;SDS011;16814;52.118;11.436;2023-05-07T03:03:25;12.98;;;9.25;;
29570;SDS011;16814;52.118;11.436;2023-05-07T03:05:51;13.27;;;9.68;;
29570;SDS011;16814;52.118;11.436;2023-05-07T03:08:17;14.20;;;9.90;;
29570;SDS011;16814;52.118;11.436;2023-05-07T03:10:44;14.05;;;10.05;;
29570;SDS011;16814;52.118;11.436;2023-05-07T03:13:11;14.85;;;10.38;;
29570;SDS011;16814;52.118;11.436;2023-05-07T03:15:38;14.47;;;10.63;;
29570;SDS011;16814;52.118;11.436;2023-05-07T03:18:05;15.85;;;10.80;;
29570;SDS011;16814;52.118;11.436;2023-05-07T03:20:31;16.27;;;10.65;;
29570;SDS011;16814;52.118;11.436;2023-05-07T03:22:57;16.60;;;11.13;;
29570;SDS011;16814;52.118;11.436;2023-05-07T03:25:25;16.20;;;11.57;;
29570;SDS011;16814;52.118;11.436;2023-05-07T03:27:56;17.15;;;12.45;;
29570;SDS011;16814;52.118;11.436;2023-05-07T03:30:23;17.50;;;11.57;;
29570;SDS011;16814;52.118;11.436;2023-05-07T03:32:50;16.42;;;12.20;;
29570;SDS011;16814;52.118;11.436;2023-05-07T03:35:16;18.17;;;12.32;;
29570;SDS011;16814;52.118;11.436;2023-05-07T03:37:44;19.20;;;12.30;;
29570;SDS011;16814;52.118;11.436;2023-05-07T03:40:10;18.33;;;12.32;;
29570;SDS011;16814;52.118;11.436;2023-05-07T03:42:39;18.48;;;12.23;;
29570;SDS011;16814;52.118;11.436;2023-05-07T03:45:05;19.42;;;12.70;;
29570;SDS011;16814;52.118;11.436;2023-05-07T03:47:37;16.35;;;11.65;;
29570;SDS011;16814;52.118;11.436;2023-05-07T03:50:04;16.13;;;11.50;;
29570;SDS011;16814;52.118;11.436;2023-05-07T03:52:31;16.37;;;11.73;;
29570;SDS011;16814;52.118;11.436;2023-05-07T03:55:00;17.10;;;11.50;;
29570;SDS011;16814;52.118;11.436;2023-05-07T03:57:27;16.10;;;11.50;;
29570;SDS011;16814;52.118;11.436;2023-05-07T03:59:55;15.27;;;11.50;;
29570;SDS011;16814;52.118;11.436;2023-05-07T04:02:22;15.00;;;11.50;;
29570;SDS011;16814;52.118;11.436;2023-05-07T04:04:49;13.95;;;10.40;;
29570;SDS011;16814;52.118;11.436;2023-05-07T04:07:14;14.77;;;10.63;;
29570;SDS011;16814;52.118;11.436;2023-05-07T04:09:41;14.73;;;10.60;;
29570;SDS011;16814;52.118;11.436;2023-05-07T04:12:11;15.75;;;10.70;;
29570;SDS011;16814;52.118;11.436;2023-05-07T04:14:38;14.13;;;10.03;;
29570;SDS011;16814;52.118;11.436;2023-05-07T04:17:05;13.90;;;10.43;;
29570;SDS011;16814;52.118;11.436;2023-05-07T04:19:34;12.87;;;9.83;;
29570;SDS011;16814;52.118;11.436;2023-05-07T04:22:02;10.93;;;8.17;;
29570;SDS011;16814;52.118;11.436;2023-05-07T04:24:33;12.30;;;9.00;;
29570;SDS011;16814;52.118;11.436;2023-05-07T04:26:58;11.13;;;8.40;;
29570;SDS011;16814;52.118;11.436;2023-05-07T04:29:25;11.37;;;8.83;;
29570;SDS011;16814;52.118;11.436;2023-05-07T04:31:54;14.20;;;8.73;;
29570;SDS011;16814;52.118;11.436;2023-05-07T04:34:22;14.00;;;9.25;;
29570;SDS011;16814;52.118;11.436;2023-05-07T04:36:49;15.95;;;10.45;;
29570;SDS011;16814;52.118;11.436;2023-05-07T04:39:15;16.53;;;10.80;;
29570;SDS011;16814;52.118;11.436;2023-05-07T04:41:41;14.50;;;10.27;;
29570;SDS011;16814;52.118;11.436;2023-05-07T04:44:09;13.05;;;9.95;;
29570;SDS011;16814;52.118;11.436;2023-05-07T04:46:37;13.70;;;9.55;;
29570;SDS011;16814;52.118;11.436;2023-05-07T04:49:05;16.40;;;10.18;;
29570;SDS011;16814;52.118;11.436;2023-05-07T04:51:32;13.93;;;9.93;;
29570;SDS011;16814;52.118;11.436;2023-05-07T04:54:00;13.77;;;9.80;;
29570;SDS011;16814;52.118;11.436;2023-05-07T04:56:27;13.88;;;9.70;;
29570;SDS011;16814;52.118;11.436;2023-05-07T04:59:02;14.00;;;9.63;;
29570;SDS011;16814;52.118;11.436;2023-05-07T05:01:27;13.35;;;9.90;;
29570;SDS011;16814;52.118;11.436;2023-05-07T05:03:54;13.15;;;9.27;;
29570;SDS011;16814;52.118;11.436;2023-05-07T05:06:22;12.90;;;9.70;;
29570;SDS011;16814;52.118;11.436;2023-05-07T05:08:50;16.80;;;10.30;;
29570;SDS011;16814;52.118;11.436;2023-05-07T05:11:15;15.63;;;10.48;;
29570;SDS011;16814;52.118;11.436;2023-05-07T05:13:42;16.20;;;11.23;;
29570;SDS011;16814;52.118;11.436;2023-05-07T05:16:14;16.05;;;11.07;;
29570;SDS011;16814;52.118;11.436;2023-05-07T05:18:42;15.77;;;10.60;;
29570;SDS011;16814;52.118;11.436;2023-05-07T05:21:09;14.85;;;10.95;;
29570;SDS011;16814;52.118;11.436;2023-05-07T05:23:36;18.10;;;11.10;;
29570;SDS011;16814;52.118;11.436;2023-05-07T05:26:02;19.40;;;11.43;;
29570;SDS011;16814;52.118;11.436;2023-05-07T05:28:32;18.33;;;11.20;;
29570;SDS011;16814;52.118;11.436;2023-05-07T05:30:58;16.98;;;11.32;;
29570;SDS011;16814;52.118;11.436;2023-05-07T05:33:24;15.73;;;11.20;;
29570;SDS011;16814;52.118;11.436;2023-05-07T05:35:53;17.30;;;11.65;;
29570;SDS011;16814;52.118;11.436;2023-05-07T05:38:23;17.23;;;11.65;;
29570;SDS011;16814;52.118;11.436;2023-05-07T05:40:50;16.63;;;11.17;;
29570;SDS011;16814;52.118;11.436;2023-05-07T05:43:17;13.50;;;9.63;;
29570;SDS011;16814;52.118;11.436;2023-05-07T05:45:42;14.00;;;9.60;;
29570;SDS011;16814;52.118;11.436;2023-05-07T05:48:09;14.18;;;9.60;;
29570;SDS011;16814;52.118;11.436;2023-05-07T05:50:38;14.43;;;9.05;;
29570;SDS011;16814;52.118;11.436;2023-05-07T05:53:07;13.60;;;8.90;;
29570;SDS011;16814;52.118;11.436;2023-05-07T05:55:34;10.73;;;7.97;;
29570;SDS011;16814;52.118;11.436;2023-05-07T05:58:00;14.10;;;8.88;;
29570;SDS011;16814;52.118;11.436;2023-05-07T06:00:27;10.37;;;7.80;;
29570;SDS011;16814;52.118;11.436;2023-05-07T06:02:56;10.40;;;7.80;;
29570;SDS011;16814;52.118;11.436;2023-05-07T06:05:25;12.10;;;8.27;;
29570;SDS011;16814;52.118;11.436;2023-05-07T06:07:52;11.25;;;8.48;;
29570;SDS011;16814;52.118;11.436;2023-05-07T06:10:20;10.18;;;8.15;;
29570;SDS011;16814;52.118;11.436;2023-05-07T06:12:52;12.55;;;8.35;;
29570;SDS011;16814;52.118;11.436;2023-05-07T06:15:18;11.15;;;8.10;;
29570;SDS011;16814;52.118;11.436;2023-05-07T06:17:45;12.13;;;8.68;;
29570;SDS011;16814;52.118;11.436;2023-05-07T06:20:12;11.50;;;8.70;;
29570;SDS011;16814;52.118;11.436;2023-05-07T06:22:39;14.05;;;9.00;;
29570;SDS011;16814;52.118;11.436;2023-05-07T06:25:05;12.53;;;8.13;;
29570;SDS011;16814;52.118;11.436;2023-05-07T06:27:30;10.45;;;8.07;;
29570;SDS011;16814;52.118;11.436;2023-05-07T06:29:57;13.00;;;9.15;;
29570;SDS011;16814;52.118;11.436;2023-05-07T06:32:24;13.33;;;8.70;;
29570;SDS011;16814;52.118;11.436;2023-05-07T06:34:50;12.52;;;8.70;;
29570;SDS011;16814;52.118;11.436;2023-05-07T06:37:16;11.57;;;8.20;;
29570;SDS011;16814;52.118;11.436;2023-05-07T06:39:45;11.10;;;7.35;;
29570;SDS011;16814;52.118;11.436;2023-05-07T06:42:10;9.38;;;7.20;;
29570;SDS011;16814;52.118;11.436;2023-05-07T06:44:38;9.50;;;6.80;;
29570;SDS011;16814;52.118;11.436;2023-05-07T06:47:04;10.00;;;7.47;;
29570;SDS011;16814;52.118;11.436;2023-05-07T06:49:31;9.95;;;7.20;;
29570;SDS011;16814;52.118;11.436;2023-05-07T06:51:58;11.60;;;7.45;;
29570;SDS011;16814;52.118;11.436;2023-05-07T06:54:26;11.75;;;7.70;;
29570;SDS011;16814;52.118;11.436;2023-05-07T06:56:53;9.70;;;7.45;;
29570;SDS011;16814;52.118;11.436;2023-05-07T06:59:23;11.13;;;7.72;;
29570;SDS011;16814;52.118;11.436;2023-05-07T07:01:50;10.05;;;7.82;;
29570;SDS011;16814;52.118;11.436;2023-05-07T07:04:15;10.63;;;7.97;;
29570;SDS011;16814;52.118;11.436;2023-05-07T07:06:52;12.23;;;8.82;;
29570;SDS011;16814;52.118;11.436;2023-05-07T07:09:23;11.40;;;7.90;;
29570;SDS011;16814;52.118;11.436;2023-05-07T07:11:49;10.88;;;8.30;;
29570;SDS011;16814;52.118;11.436;2023-05-07T07:14:17;12.15;;;8.32;;
29570;SDS011;16814;52.118;11.436;2023-05-07T07:16:45;15.05;;;9.98;;
29570;SDS011;16814;52.118;11.436;2023-05-07T07:19:12;14.35;;;9.38;;
29570;SDS011;16814;52.118;11.436;2023-05-07T07:21:41;13.18;;;9.85;;
29570;SDS011;16814;52.118;11.436;2023-05-07T07:24:06;19.02;;;10.52;;
29570;SDS011;16814;52.118;11.436;2023-05-07T07:26:33;13.25;;;9.65;;
29570;SDS011;16814;52.118;11.436;2023-05-07T07:29:01;13.82;;;9.70;;
29570;SDS011;16814;52.118;11.436;2023-05-07T07:31:34;16.15;;;11.45;;
29570;SDS011;16814;52.118;11.436;2023-05-07T07:34:01;13.93;;;9.33;;
29570;SDS011;16814;52.118;11.436;2023-05-07T07:36:26;11.90;;;9.13;;
29570;SDS011;16814;52.118;11.436;2023-05-07T07:38:55;15.50;;;9.27;;
29570;SDS011;16814;52.118;11.436;2023-05-07T07:41:22;12.90;;;9.10;;
29570;SDS011;16814;52.118;11.436;2023-05-07T07:43:50;12.30;;;9.00;;
29570;SDS011;16814;52.118;11.436;2023-05-07T07:46:15;12.60;;;9.48;;
29570;SDS011;16814;52.118;11.436;2023-05-07T07:48:44;13.23;;;10.00;;
29570;SDS011;16814;52.118;11.436;2023-05-07T07:51:12;14.93;;;9.87;;
29570;SDS011;16814;52.118;11.436;2023-05-07T07:53:39;13.50;;;10.05;;
29570;SDS011;16814;52.118;11.436;2023-05-07T07:56:06;15.40;;;10.18;;
29570;SDS011;16814;52.118;11.436;2023-05-07T07:58:33;14.70;;;10.23;;
29570;SDS011;16814;52.118;11.436;2023-05-07T08:01:02;15.50;;;10.68;;
29570;SDS011;16814;52.118;11.436;2023-05-07T08:03:27;13.77;;;10.43;;
29570;SDS011;16814;52.118;11.436;2023-05-07T08:05:53;15.65;;;11.00;;
29570;SDS011;16814;52.118;11.436;2023-05-07T08:08:20;14.87;;;10.03;;
29570;SDS011;16814;52.118;11.436;2023-05-07T08:10:45;13.45;;;9.88;;
29570;SDS011;16814;52.118;11.436;2023-05-07T08:13:13;14.23;;;9.87;;
29570;SDS011;16814;52.118;11.436;2023-05-07T08:15:38;13.85;;;9.63;;
29570;SDS011;16814;52.118;11.436;2023-05-07T08:18:05;13.18;;;9.55;;
29570;SDS011;16814;52.118;11.436;2023-05-07T08:20:32;13.32;;;9.68;;
29570;SDS011;16814;52.118;11.436;2023-05-07T08:22:59;11.90;;;8.88;;
29570;SDS011;16814;52.118;11.436;2023-05-07T08:25:25;12.35;;;8.90;;
29570;SDS011;16814;52.118;11.436;2023-05-07T08:27:51;11.93;;;8.73;;
29570;SDS011;16814;52.118;11.436;2023-05-07T08:30:18;12.83;;;9.20;;
29570;SDS011;16814;52.118;11.436;2023-05-07T08:32:46;13.57;;;9.30;;
29570;SDS011;16814;52.118;11.436;2023-05-07T08:35:13;13.87;;;9.53;;
29570;SDS011;16814;52.118;11.436;2023-05-07T08:37:39;15.85;;;9.85;;
29570;SDS011;16814;52.118;11.436;2023-05-07T08:40:05;11.73;;;8.67;;
29570;SDS011;16814;52.118;11.436;2023-05-07T08:42:35;11.25;;;8.20;;
29570;SDS011;16814;52.118;11.436;2023-05-07T08:45:07;12.25;;;8.30;;
29570;SDS011;16814;52.118;11.436;2023-05-07T08:47:46;11.00;;;8.13;;
29570;SDS011;16814;52.118;11.436;2023-05-07T08:50:16;13.65;;;8.35;;
29570;SDS011;16814;52.118;11.436;2023-05-07T08:52:43;12.18;;;8.27;;
29570;SDS011;16814;52.118;11.436;2023-05-07T08:55:10;12.05;;;7.85;;
29570;SDS011;16814;52.118;11.436;2023-05-07T08:57:40;10.30;;;7.13;;
29570;SDS011;16814;52.118;11.436;2023-05-07T09:00:08;11.23;;;7.45;;
29570;SDS011;16814;52.118;11.436;2023-05-07T09:02:37;10.00;;;7.17;;
29570;SDS011;16814;52.118;11.436;2023-05-07T09:05:03;10.98;;;7.63;;
29570;SDS011;16814;52.118;11.436;2023-05-07T09:07:32;11.10;;;7.93;;
29570;SDS011;16814;52.118;11.436;2023-05-07T09:10:01;15.55;;;9.13;;
29570;SDS011;16814;52.118;11.436;2023-05-07T09:12:29;14.32;;;9.57;;
29570;SDS011;16814;52.118;11.436;2023-05-07T09:14:56;12.60;;;9.17;;
29570;SDS011;16814;52.118;11.436;2023-05-07T09:17:28;12.50;;;9.30;;
29570;SDS011;16814;52.118;11.436;2023-05-07T09:19:55;14.27;;;9.50;;
29570;SDS011;16814;52.118;11.436;2023-05-07T09:22:22;15.00;;;9.30;;
29570;SDS011;16814;52.118;11.436;2023-05-07T09:24:48;14.95;;;9.38;;
29570;SDS011;16814;52.118;11.436;2023-05-07T09:27:17;13.87;;;9.60;;
29570;SDS011;16814;52.118;11.436;2023-05-07T09:29:45;13.75;;;9.25;;
29570;SDS011;16814;52.118;11.436;2023-05-07T09:32:13;15.65;;;8.73;;
29570;SDS011;16814;52.118;11.436;2023-05-07T09:34:42;12.68;;;8.90;;
29570;SDS011;16814;52.118;11.436;2023-05-07T09:37:10;15.30;;;9.45;;
29570;SDS011;16814;52.118;11.436;2023-05-07T09:39:43;13.27;;;8.60;;
29570;SDS011;16814;52.118;11.436;2023-05-07T09:42:09;13.35;;;9.23;;
29570;SDS011;16814;52.118;11.436;2023-05-07T09:44:44;15.15;;;9.07;;
29570;SDS011;16814;52.118;11.436;2023-05-07T09:47:11;15.93;;;9.07;;
29570;SDS011;16814;52.118;11.436;2023-05-07T09:49:43;17.23;;;9.73;;
29570;SDS011;16814;52.118;11.436;2023-05-07T09:52:15;15.13;;;9.97;;
29570;SDS011;16814;52.118;11.436;2023-05-07T09:54:44;16.15;;;10.02;;
29570;SDS011;16814;52.118;11.436;2023-05-07T09:57:12;14.75;;;8.85;;
29570;SDS011;16814;52.118;11.436;2023-05-07T09:59:41;11.57;;;8.60;;
29570;SDS011;16814;52.118;11.436;2023-05-07T10:02:08;16.73;;;9.27;;
29570;SDS011;16814;52.118;11.436;2023-05-07T10:04:35;14.70;;;9.15;;
29570;SDS011;16814;52.118;11.436;2023-05-07T10:07:01;14.13;;;8.70;;
29570;SDS011;16814;52.118;11.436;2023-05-07T10:09:32;13.73;;;8.30;;
29570;SDS011;16814;52.118;11.436;2023-05-07T10:12:01;15.52;;;8.85;;
29570;SDS011;16814;52.118;11.436;2023-05-07T10:14:27;13.20;;;8.67;;
29570;SDS011;16814;52.118;11.436;2023-05-07T10:16:56;12.20;;;7.97;;
29570;SDS011;16814;52.118;11.436;2023-05-07T10:19:33;12.13;;;7.90;;
29570;SDS011;16814;52.118;11.436;2023-05-07T10:22:05;10.60;;;7.15;;
29570;SDS011;16814;52.118;11.436;2023-05-07T10:24:33;11.88;;;7.68;;
29570;SDS011;16814;52.118;11.436;2023-05-07T10:27:02;13.20;;;7.35;;
29570;SDS011;16814;52.118;11.436;2023-05-07T10:32:40;11.45;;;7.60;;
29570;SDS011;16814;52.118;11.436;2023-05-07T10:35:26;13.63;;;7.78;;
29570;SDS011;16814;52.118;11.436;2023-05-07T10:37:58;11.23;;;7.72;;
29570;SDS011;16814;52.118;11.436;2023-05-07T10:40:28;10.55;;;6.95;;
29570;SDS011;16814;52.118;11.436;2023-05-07T10:42:59;10.60;;;6.95;;
29570;SDS011;16814;52.118;11.436;2023-05-07T10:45:29;13.75;;;7.75;;
29570;SDS011;16814;52.118;11.436;2023-05-07T10:48:14;11.37;;;6.93;;
29570;SDS011;16814;52.118;11.436;2023-05-07T10:50:42;10.53;;;6.73;;
29570;SDS011;16814;52.118;11.436;2023-05-07T10:58:56;13.52;;;7.10;;
29570;SDS011;16814;52.118;11.436;2023-05-07T11:04:23;10.45;;;6.93;;
29570;SDS011;16814;52.118;11.436;2023-05-07T11:15:12;8.85;;;6.40;;
29570;SDS011;16814;52.118;11.436;2023-05-07T11:17:58;9.80;;;6.72;;
29570;SDS011;16814;52.118;11.436;2023-05-07T11:26:10;11.25;;;7.07;;
29570;SDS011;16814;52.118;11.436;2023-05-07T11:28:38;9.90;;;7.03;;
29570;SDS011;16814;52.118;11.436;2023-05-07T11:31:17;10.23;;;7.15;;
29570;SDS011;16814;52.118;11.436;2023-05-07T11:33:49;11.80;;;7.37;;
29570;SDS011;16814;52.118;11.436;2023-05-07T11:36:23;9.85;;;7.40;;
29570;SDS011;16814;52.118;11.436;2023-05-07T11:38:50;11.55;;;7.40;;
29570;SDS011;16814;52.118;11.436;2023-05-07T11:41:18;10.75;;;7.25;;
29570;SDS011;16814;52.118;11.436;2023-05-07T11:43:58;11.00;;;7.45;;
29570;SDS011;16814;52.118;11.436;2023-05-07T11:46:26;9.67;;;7.20;;
29570;SDS011;16814;52.118;11.436;2023-05-07T11:48:52;11.10;;;7.05;;
29570;SDS011;16814;52.118;11.436;2023-05-07T11:51:22;13.60;;;7.25;;
29570;SDS011;16814;52.118;11.436;2023-05-07T11:53:54;11.15;;;7.47;;
29570;SDS011;16814;52.118;11.436;2023-05-07T11:56:19;9.60;;;6.75;;
29570;SDS011;16814;52.118;11.436;2023-05-07T11:58:47;9.65;;;7.15;;
29570;SDS011;16814;52.118;11.436;2023-05-07T12:01:15;9.52;;;6.85;;
29570;SDS011;16814;52.118;11.436;2023-05-07T12:03:52;9.68;;;6.45;;
29570;SDS011;16814;52.118;11.436;2023-05-07T12:06:18;11.17;;;7.30;;
29570;SDS011;16814;52.118;11.436;2023-05-07T12:08:45;9.77;;;7.05;;
29570;SDS011;16814;52.118;11.436;2023-05-07T12:11:44;9.85;;;6.80;;
29570;SDS011;16814;52.118;11.436;2023-05-07T12:14:04;12.18;;;7.20;;
29570;SDS011;16814;52.118;11.436;2023-05-07T12:16:32;12.75;;;8.20;;
29570;SDS011;16814;52.118;11.436;2023-05-07T12:19:00;14.20;;;7.60;;
29570;SDS011;16814;52.118;11.436;2023-05-07T12:21:32;10.00;;;7.10;;
29570;SDS011;16814;52.118;11.436;2023-05-07T12:24:00;11.27;;;7.90;;
29570;SDS011;16814;52.118;11.436;2023-05-07T12:26:28;10.48;;;7.53;;
29570;SDS011;16814;52.118;11.436;2023-05-07T12:28:57;10.32;;;7.40;;
29570;SDS011;16814;52.118;11.436;2023-05-07T12:31:25;9.30;;;7.40;;
29570;SDS011;16814;52.118;11.436;2023-05-07T12:33:51;11.65;;;7.45;;
29570;SDS011;16814;52.118;11.436;2023-05-07T12:36:18;11.10;;;7.30;;
29570;SDS011;16814;52.118;11.436;2023-05-07T12:38:49;10.25;;;6.65;;
29570;SDS011;16814;52.118;11.436;2023-05-07T12:41:17;9.52;;;6.03;;
29570;SDS011;16814;52.118;11.436;2023-05-07T12:43:44;8.38;;;5.90;;
29570;SDS011;16814;52.118;11.436;2023-05-07T12:46:13;10.77;;;5.80;;
29570;SDS011;16814;52.118;11.436;2023-05-07T12:48:46;10.35;;;5.72;;
29570;SDS011;16814;52.118;11.436;2023-05-07T12:51:13;9.85;;;6.22;;
29570;SDS011;16814;52.118;11.436;2023-05-07T12:53:41;10.13;;;6.28;;
29570;SDS011;16814;52.118;11.436;2023-05-07T12:56:09;9.77;;;5.95;;
29570;SDS011;16814;52.118;11.436;2023-05-07T12:58:36;9.37;;;6.20;;
29570;SDS011;16814;52.118;11.436;2023-05-07T13:01:08;9.15;;;6.20;;
29570;SDS011;16814;52.118;11.436;2023-05-07T13:03:47;10.50;;;6.03;;
29570;SDS011;16814;52.118;11.436;2023-05-07T13:06:19;10.05;;;5.82;;
29570;SDS011;16814;52.118;11.436;2023-05-07T13:08:45;8.40;;;5.88;;
29570;SDS011;16814;52.118;11.436;2023-05-07T13:11:13;7.15;;;5.53;;
29570;SDS011;16814;52.118;11.436;2023-05-07T13:13:41;11.30;;;6.65;;
29570;SDS011;16814;52.118;11.436;2023-05-07T13:16:09;7.30;;;5.75;;
29570;SDS011;16814;52.118;11.436;2023-05-07T13:18:39;7.72;;;5.70;;
29570;SDS011;16814;52.118;11.436;2023-05-07T13:21:08;8.27;;;6.40;;
29570;SDS011;16814;52.118;11.436;2023-05-07T13:23:39;8.70;;;5.85;;
29570;SDS011;16814;52.118;11.436;2023-05-07T13:26:07;8.00;;;5.88;;
29570;SDS011;16814;52.118;11.436;2023-05-07T13:28:32;8.47;;;6.07;;
29570;SDS011;16814;52.118;11.436;2023-05-07T13:30:59;9.05;;;5.68;;
29570;SDS011;16814;52.118;11.436;2023-05-07T13:33:25;8.95;;;5.70;;
29570;SDS011;16814;52.118;11.436;2023-05-07T13:35:53;10.43;;;5.65;;
29570;SDS011;16814;52.118;11.436;2023-05-07T13:38:22;9.90;;;6.13;;
29570;SDS011;16814;52.118;11.436;2023-05-07T13:40:51;10.48;;;5.68;;
29570;SDS011;16814;52.118;11.436;2023-05-07T13:43:18;8.85;;;6.57;;
29570;SDS011;16814;52.118;11.436;2023-05-07T13:45:46;9.38;;;6.30;;
29570;SDS011;16814;52.118;11.436;2023-05-07T13:48:25;10.25;;;7.05;;
29570;SDS011;16814;52.118;11.436;2023-05-07T13:50:52;9.20;;;6.60;;
29570;SDS011;16814;52.118;11.436;2023-05-07T13:53:20;10.25;;;6.10;;
29570;SDS011;16814;52.118;11.436;2023-05-07T13:55:49;8.55;;;6.88;;
29570;SDS011;16814;52.118;11.436;2023-05-07T13:58:16;10.43;;;7.18;;
29570;SDS011;16814;52.118;11.436;2023-05-07T14:00:43;8.00;;;6.68;;
29570;SDS011;16814;52.118;11.436;2023-05-07T14:03:12;9.48;;;6.50;;
29570;SDS011;16814;52.118;11.436;2023-05-07T14:05:40;10.25;;;7.13;;
29570;SDS011;16814;52.118;11.436;2023-05-07T14:08:08;10.63;;;7.30;;
29570;SDS011;16814;52.118;11.436;2023-05-07T14:10:40;9.23;;;7.20;;
29570;SDS011;16814;52.118;11.436;2023-05-07T14:13:12;10.80;;;7.38;;
29570;SDS011;16814;52.118;11.436;2023-05-07T14:15:37;8.15;;;6.85;;
29570;SDS011;16814;52.118;11.436;2023-05-07T14:18:05;10.60;;;7.25;;
29570;SDS011;16814;52.118;11.436;2023-05-07T14:20:33;8.73;;;6.70;;
29570;SDS011;16814;52.118;11.436;2023-05-07T14:23:02;8.30;;;6.13;;
29570;SDS011;16814;52.118;11.436;2023-05-07T14:25:40;8.13;;;5.68;;
29570;SDS011;16814;52.118;11.436;2023-05-07T14:28:08;7.72;;;6.10;;
29570;SDS011;16814;52.118;11.436;2023-05-07T14:30:46;10.35;;;6.28;;
29570;SDS011;16814;52.118;11.436;2023-05-07T14:33:16;8.38;;;5.93;;
29570;SDS011;16814;52.118;11.436;2023-05-07T14:35:43;8.05;;;5.78;;
29570;SDS011;16814;52.118;11.436;2023-05-07T14:38:14;11.73;;;5.55;;
29570;SDS011;16814;52.118;11.436;2023-05-07T14:40:40;9.68;;;5.57;;
29570;SDS011;16814;52.118;11.436;2023-05-07T14:43:09;5.97;;;4.70;;
29570;SDS011;16814;52.118;11.436;2023-05-07T14:45:40;6.90;;;4.80;;
29570;SDS011;16814;52.118;11.436;2023-05-07T14:48:05;8.25;;;5.10;;
29570;SDS011;16814;52.118;11.436;2023-05-07T14:50:34;7.90;;;5.30;;